sensor_id;sensor_type;location;lat;lon;timestamp;P1;durP1;ratioP1;P2;durP2;ratioP2
41633;SDS011;37274;51.150;4.808;2022-07-23T00:00:09;1.60;;;1.50;;
41633;SDS011;37274;51.150;4.808;2022-07-23T00:02:36;2.47;;;1.80;;
41633;SDS011;37274;51.150;4.808;2022-07-23T00:05:03;1.88;;;1.77;;
41633;SDS011;37274;51.150;4.808;2022-07-23T00:07:30;1.60;;;1.50;;
41633;SDS011;37274;51.150;4.808;2022-07-23T00:09:57;2.33;;;1.80;;
41633;SDS011;37274;51.150;4.808;2022-07-23T00:12:24;2.28;;;2.08;;
41633;SDS011;37274;51.150;4.808;2022-07-23T00:14:50;2.13;;;1.83;;
41633;SDS011;37274;51.150;4.808;2022-07-23T00:17:17;2.22;;;2.03;;
41633;SDS011;37274;51.150;4.808;2022-07-23T00:19:44;2.10;;;1.77;;
41633;SDS011;37274;51.150;4.808;2022-07-23T00:22:11;1.60;;;1.50;;
41633;SDS011;37274;51.150;4.808;2022-07-23T00:24:38;2.35;;;1.98;;
41633;SDS011;37274;51.150;4.808;2022-07-23T00:27:05;1.92;;;1.70;;
41633;SDS011;37274;51.150;4.808;2022-07-23T00:29:31;2.65;;;2.20;;
41633;SDS011;37274;51.150;4.808;2022-07-23T00:31:58;1.83;;;1.60;;
41633;SDS011;37274;51.150;4.808;2022-07-23T00:34:25;2.22;;;1.67;;
41633;SDS011;37274;51.150;4.808;2022-07-23T00:36:52;2.10;;;1.90;;
41633;SDS011;37274;51.150;4.808;2022-07-23T00:39:20;1.60;;;1.50;;
41633;SDS011;37274;51.150;4.808;2022-07-23T00:41:50;2.38;;;2.17;;
41633;SDS011;37274;51.150;4.808;2022-07-23T00:44:21;1.90;;;1.70;;
41633;SDS011;37274;51.150;4.808;2022-07-23T00:46:50;1.77;;;1.67;;
41633;SDS011;37274;51.150;4.808;2022-07-23T00:49:20;2.60;;;1.83;;
41633;SDS011;37274;51.150;4.808;2022-07-23T00:51:48;2.30;;;1.85;;
41633;SDS011;37274;51.150;4.808;2022-07-23T00:54:16;1.85;;;1.63;;
41633;SDS011;37274;51.150;4.808;2022-07-23T00:56:44;1.90;;;1.80;;
41633;SDS011;37274;51.150;4.808;2022-07-23T00:59:11;2.10;;;1.90;;
41633;SDS011;37274;51.150;4.808;2022-07-23T01:01:38;2.03;;;1.83;;
41633;SDS011;37274;51.150;4.808;2022-07-23T01:04:05;1.80;;;1.70;;
41633;SDS011;37274;51.150;4.808;2022-07-23T01:06:34;1.50;;;1.40;;
41633;SDS011;37274;51.150;4.808;2022-07-23T01:09:03;1.60;;;1.50;;
41633;SDS011;37274;51.150;4.808;2022-07-23T01:11:34;2.85;;;1.70;;
41633;SDS011;37274;51.150;4.808;2022-07-23T01:14:09;2.00;;;1.83;;
41633;SDS011;37274;51.150;4.808;2022-07-23T01:16:42;2.10;;;1.90;;
41633;SDS011;37274;51.150;4.808;2022-07-23T01:19:10;2.00;;;1.40;;
41633;SDS011;37274;51.150;4.808;2022-07-23T01:21:38;1.70;;;1.60;;
41633;SDS011;37274;51.150;4.808;2022-07-23T01:24:07;1.98;;;1.83;;
41633;SDS011;37274;51.150;4.808;2022-07-23T01:26:34;1.98;;;1.77;;
41633;SDS011;37274;51.150;4.808;2022-07-23T01:29:01;1.92;;;1.60;;
41633;SDS011;37274;51.150;4.808;2022-07-23T01:31:29;1.92;;;1.70;;
41633;SDS011;37274;51.150;4.808;2022-07-23T01:33:57;1.67;;;1.55;;
41633;SDS011;37274;51.150;4.808;2022-07-23T01:36:25;1.55;;;1.45;;
41633;SDS011;37274;51.150;4.808;2022-07-23T01:38:52;2.70;;;2.17;;
41633;SDS011;37274;51.150;4.808;2022-07-23T01:41:19;2.22;;;1.58;;
41633;SDS011;37274;51.150;4.808;2022-07-23T01:43:46;1.75;;;1.65;;
41633;SDS011;37274;51.150;4.808;2022-07-23T01:46:13;2.47;;;1.65;;
41633;SDS011;37274;51.150;4.808;2022-07-23T01:48:42;1.52;;;1.42;;
41633;SDS011;37274;51.150;4.808;2022-07-23T01:51:09;2.35;;;1.80;;
41633;SDS011;37274;51.150;4.808;2022-07-23T01:53:36;2.25;;;1.40;;
41633;SDS011;37274;51.150;4.808;2022-07-23T01:56:03;1.92;;;1.73;;
41633;SDS011;37274;51.150;4.808;2022-07-23T01:58:30;1.48;;;1.38;;
41633;SDS011;37274;51.150;4.808;2022-07-23T02:00:57;1.70;;;1.60;;
41633;SDS011;37274;51.150;4.808;2022-07-23T02:03:24;1.65;;;1.55;;
41633;SDS011;37274;51.150;4.808;2022-07-23T02:05:51;1.88;;;1.77;;
41633;SDS011;37274;51.150;4.808;2022-07-23T02:08:18;1.38;;;1.27;;
41633;SDS011;37274;51.150;4.808;2022-07-23T02:10:45;1.83;;;1.73;;
41633;SDS011;37274;51.150;4.808;2022-07-23T02:13:12;2.45;;;1.85;;
41633;SDS011;37274;51.150;4.808;2022-07-23T02:15:45;1.48;;;1.38;;
41633;SDS011;37274;51.150;4.808;2022-07-23T02:18:13;2.65;;;1.60;;
41633;SDS011;37274;51.150;4.808;2022-07-23T02:20:40;2.78;;;1.70;;
41633;SDS011;37274;51.150;4.808;2022-07-23T02:23:06;2.35;;;1.60;;
41633;SDS011;37274;51.150;4.808;2022-07-23T02:25:33;1.60;;;1.50;;
41633;SDS011;37274;51.150;4.808;2022-07-23T02:28:00;1.40;;;1.30;;
41633;SDS011;37274;51.150;4.808;2022-07-23T02:30:28;1.85;;;1.60;;
41633;SDS011;37274;51.150;4.808;2022-07-23T02:32:54;1.60;;;1.50;;
41633;SDS011;37274;51.150;4.808;2022-07-23T02:35:21;1.58;;;1.45;;
41633;SDS011;37274;51.150;4.808;2022-07-23T02:37:48;2.05;;;1.50;;
41633;SDS011;37274;51.150;4.808;2022-07-23T02:40:16;2.00;;;1.33;;
41633;SDS011;37274;51.150;4.808;2022-07-23T02:42:43;1.30;;;1.20;;
41633;SDS011;37274;51.150;4.808;2022-07-23T02:45:10;1.50;;;1.40;;
41633;SDS011;37274;51.150;4.808;2022-07-23T02:47:37;1.58;;;1.48;;
41633;SDS011;37274;51.150;4.808;2022-07-23T02:50:04;1.55;;;1.45;;
41633;SDS011;37274;51.150;4.808;2022-07-23T02:52:31;1.50;;;1.40;;
41633;SDS011;37274;51.150;4.808;2022-07-23T02:54:58;2.03;;;1.60;;
41633;SDS011;37274;51.150;4.808;2022-07-23T02:57:25;1.48;;;1.38;;
41633;SDS011;37274;51.150;4.808;2022-07-23T02:59:52;1.55;;;1.40;;
41633;SDS011;37274;51.150;4.808;2022-07-23T03:02:18;1.58;;;1.48;;
41633;SDS011;37274;51.150;4.808;2022-07-23T03:04:45;1.45;;;1.35;;
41633;SDS011;37274;51.150;4.808;2022-07-23T03:07:12;3.30;;;2.17;;
41633;SDS011;37274;51.150;4.808;2022-07-23T03:09:39;1.13;;;1.13;;
41633;SDS011;37274;51.150;4.808;2022-07-23T03:12:05;1.23;;;1.13;;
41633;SDS011;37274;51.150;4.808;2022-07-23T03:14:39;1.30;;;1.20;;
41633;SDS011;37274;51.150;4.808;2022-07-23T03:17:06;1.40;;;1.33;;
41633;SDS011;37274;51.150;4.808;2022-07-23T03:19:33;1.67;;;1.58;;
41633;SDS011;37274;51.150;4.808;2022-07-23T03:21:59;2.63;;;1.48;;
41633;SDS011;37274;51.150;4.808;2022-07-23T03:24:26;1.35;;;1.25;;
41633;SDS011;37274;51.150;4.808;2022-07-23T03:27:12;1.33;;;1.23;;
41633;SDS011;37274;51.150;4.808;2022-07-23T03:29:38;1.35;;;1.30;;
41633;SDS011;37274;51.150;4.808;2022-07-23T03:32:05;1.23;;;1.20;;
41633;SDS011;37274;51.150;4.808;2022-07-23T03:34:32;1.15;;;1.15;;
41633;SDS011;37274;51.150;4.808;2022-07-23T03:36:59;2.03;;;1.48;;
41633;SDS011;37274;51.150;4.808;2022-07-23T03:39:28;1.40;;;1.30;;
41633;SDS011;37274;51.150;4.808;2022-07-23T03:41:55;1.27;;;1.15;;
41633;SDS011;37274;51.150;4.808;2022-07-23T03:44:22;1.88;;;1.30;;
41633;SDS011;37274;51.150;4.808;2022-07-23T03:46:49;1.25;;;1.17;;
41633;SDS011;37274;51.150;4.808;2022-07-23T03:49:16;1.30;;;1.20;;
41633;SDS011;37274;51.150;4.808;2022-07-23T03:51:44;1.90;;;1.38;;
41633;SDS011;37274;51.150;4.808;2022-07-23T03:54:10;1.48;;;1.38;;
41633;SDS011;37274;51.150;4.808;2022-07-23T03:56:37;1.20;;;1.10;;
41633;SDS011;37274;51.150;4.808;2022-07-23T03:59:04;1.45;;;1.33;;
41633;SDS011;37274;51.150;4.808;2022-07-23T04:01:31;1.45;;;1.33;;
41633;SDS011;37274;51.150;4.808;2022-07-23T04:03:58;1.42;;;1.25;;
41633;SDS011;37274;51.150;4.808;2022-07-23T04:06:25;1.20;;;1.17;;
41633;SDS011;37274;51.150;4.808;2022-07-23T04:08:52;1.80;;;1.70;;
41633;SDS011;37274;51.150;4.808;2022-07-23T04:11:19;1.50;;;1.40;;
41633;SDS011;37274;51.150;4.808;2022-07-23T04:13:45;1.90;;;1.50;;
41633;SDS011;37274;51.150;4.808;2022-07-23T04:16:12;1.27;;;1.17;;
41633;SDS011;37274;51.150;4.808;2022-07-23T04:18:39;1.35;;;1.25;;
41633;SDS011;37274;51.150;4.808;2022-07-23T04:21:07;1.38;;;1.27;;
41633;SDS011;37274;51.150;4.808;2022-07-23T04:23:34;1.60;;;1.33;;
41633;SDS011;37274;51.150;4.808;2022-07-23T04:26:00;1.33;;;1.23;;
41633;SDS011;37274;51.150;4.808;2022-07-23T04:28:27;1.25;;;1.05;;
41633;SDS011;37274;51.150;4.808;2022-07-23T04:30:55;1.48;;;1.20;;
41633;SDS011;37274;51.150;4.808;2022-07-23T04:33:24;1.50;;;1.35;;
41633;SDS011;37274;51.150;4.808;2022-07-23T04:35:51;1.30;;;1.20;;
41633;SDS011;37274;51.150;4.808;2022-07-23T04:38:18;1.38;;;1.27;;
41633;SDS011;37274;51.150;4.808;2022-07-23T04:40:45;1.40;;;1.30;;
41633;SDS011;37274;51.150;4.808;2022-07-23T04:43:12;1.17;;;1.15;;
41633;SDS011;37274;51.150;4.808;2022-07-23T04:45:39;1.30;;;1.20;;
41633;SDS011;37274;51.150;4.808;2022-07-23T04:48:05;1.40;;;1.13;;
41633;SDS011;37274;51.150;4.808;2022-07-23T04:50:32;1.60;;;1.50;;
41633;SDS011;37274;51.150;4.808;2022-07-23T04:52:59;1.45;;;1.35;;
41633;SDS011;37274;51.150;4.808;2022-07-23T04:55:26;1.95;;;1.20;;
41633;SDS011;37274;51.150;4.808;2022-07-23T04:57:52;1.33;;;1.10;;
41633;SDS011;37274;51.150;4.808;2022-07-23T05:00:19;1.10;;;1.10;;
41633;SDS011;37274;51.150;4.808;2022-07-23T05:02:46;1.30;;;1.20;;
41633;SDS011;37274;51.150;4.808;2022-07-23T05:05:13;1.55;;;1.45;;
41633;SDS011;37274;51.150;4.808;2022-07-23T05:07:39;1.40;;;1.30;;
41633;SDS011;37274;51.150;4.808;2022-07-23T05:10:06;1.33;;;1.23;;
41633;SDS011;37274;51.150;4.808;2022-07-23T05:12:33;1.52;;;1.25;;
41633;SDS011;37274;51.150;4.808;2022-07-23T05:15:00;1.30;;;1.20;;
41633;SDS011;37274;51.150;4.808;2022-07-23T05:17:27;4.95;;;3.55;;
41633;SDS011;37274;51.150;4.808;2022-07-23T05:19:53;5.55;;;4.40;;
41633;SDS011;37274;51.150;4.808;2022-07-23T05:22:25;5.75;;;4.32;;
41633;SDS011;37274;51.150;4.808;2022-07-23T05:24:52;5.32;;;4.03;;
41633;SDS011;37274;51.150;4.808;2022-07-23T05:27:19;5.57;;;4.35;;
41633;SDS011;37274;51.150;4.808;2022-07-23T05:29:46;6.07;;;4.25;;
41633;SDS011;37274;51.150;4.808;2022-07-23T05:32:12;7.30;;;4.28;;
41633;SDS011;37274;51.150;4.808;2022-07-23T05:34:39;6.38;;;4.65;;
41633;SDS011;37274;51.150;4.808;2022-07-23T05:37:06;6.25;;;4.60;;
41633;SDS011;37274;51.150;4.808;2022-07-23T05:39:33;5.53;;;4.10;;
41633;SDS011;37274;51.150;4.808;2022-07-23T05:41:59;4.93;;;4.43;;
41633;SDS011;37274;51.150;4.808;2022-07-23T05:44:26;7.18;;;4.38;;
41633;SDS011;37274;51.150;4.808;2022-07-23T05:46:59;7.32;;;3.80;;
41633;SDS011;37274;51.150;4.808;2022-07-23T05:49:26;5.50;;;4.43;;
41633;SDS011;37274;51.150;4.808;2022-07-23T05:51:53;4.68;;;4.15;;
41633;SDS011;37274;51.150;4.808;2022-07-23T05:54:20;6.43;;;4.28;;
41633;SDS011;37274;51.150;4.808;2022-07-23T05:56:47;6.13;;;4.25;;
41633;SDS011;37274;51.150;4.808;2022-07-23T05:59:14;4.97;;;3.80;;
41633;SDS011;37274;51.150;4.808;2022-07-23T06:01:41;4.18;;;3.78;;
41633;SDS011;37274;51.150;4.808;2022-07-23T06:04:08;4.88;;;4.38;;
41633;SDS011;37274;51.150;4.808;2022-07-23T06:06:35;7.07;;;4.70;;
41633;SDS011;37274;51.150;4.808;2022-07-23T06:09:02;5.13;;;4.63;;
41633;SDS011;37274;51.150;4.808;2022-07-23T06:11:30;4.47;;;3.63;;
41633;SDS011;37274;51.150;4.808;2022-07-23T06:13:56;5.28;;;4.35;;
41633;SDS011;37274;51.150;4.808;2022-07-23T06:16:23;5.72;;;4.40;;
41633;SDS011;37274;51.150;4.808;2022-07-23T06:18:50;5.70;;;4.35;;
41633;SDS011;37274;51.150;4.808;2022-07-23T06:21:17;6.07;;;4.15;;
41633;SDS011;37274;51.150;4.808;2022-07-23T06:24:04;6.72;;;4.65;;
41633;SDS011;37274;51.150;4.808;2022-07-23T06:26:30;4.97;;;4.05;;
41633;SDS011;37274;51.150;4.808;2022-07-23T06:28:57;4.90;;;4.47;;
41633;SDS011;37274;51.150;4.808;2022-07-23T06:31:24;7.30;;;4.32;;
41633;SDS011;37274;51.150;4.808;2022-07-23T06:33:51;5.00;;;4.38;;
41633;SDS011;37274;51.150;4.808;2022-07-23T06:36:18;5.07;;;4.05;;
41633;SDS011;37274;51.150;4.808;2022-07-23T06:38:45;6.80;;;4.38;;
41633;SDS011;37274;51.150;4.808;2022-07-23T06:41:13;4.68;;;3.92;;
41633;SDS011;37274;51.150;4.808;2022-07-23T06:43:40;6.43;;;4.30;;
41633;SDS011;37274;51.150;4.808;2022-07-23T06:46:07;5.40;;;4.20;;
41633;SDS011;37274;51.150;4.808;2022-07-23T06:48:34;4.10;;;3.70;;
41633;SDS011;37274;51.150;4.808;2022-07-23T06:51:02;5.75;;;3.60;;
41633;SDS011;37274;51.150;4.808;2022-07-23T06:53:29;3.95;;;3.35;;
41633;SDS011;37274;51.150;4.808;2022-07-23T06:55:56;4.95;;;3.63;;
41633;SDS011;37274;51.150;4.808;2022-07-23T06:58:23;4.97;;;3.67;;
41633;SDS011;37274;51.150;4.808;2022-07-23T07:00:50;3.53;;;3.17;;
41633;SDS011;37274;51.150;4.808;2022-07-23T07:03:19;4.72;;;3.72;;
41633;SDS011;37274;51.150;4.808;2022-07-23T07:05:46;5.50;;;3.70;;
41633;SDS011;37274;51.150;4.808;2022-07-23T07:08:12;3.70;;;3.38;;
41633;SDS011;37274;51.150;4.808;2022-07-23T07:10:39;3.85;;;3.50;;
41633;SDS011;37274;51.150;4.808;2022-07-23T07:13:06;4.53;;;3.55;;
41633;SDS011;37274;51.150;4.808;2022-07-23T07:15:33;5.93;;;3.35;;
41633;SDS011;37274;51.150;4.808;2022-07-23T07:18:00;8.27;;;4.68;;
41633;SDS011;37274;51.150;4.808;2022-07-23T07:20:26;3.40;;;3.08;;
41633;SDS011;37274;51.150;4.808;2022-07-23T07:22:53;5.03;;;3.75;;
41633;SDS011;37274;51.150;4.808;2022-07-23T07:25:20;5.70;;;3.13;;
41633;SDS011;37274;51.150;4.808;2022-07-23T07:27:47;3.40;;;2.10;;
41633;SDS011;37274;51.150;4.808;2022-07-23T07:30:14;3.95;;;2.15;;
41633;SDS011;37274;51.150;4.808;2022-07-23T07:32:41;2.17;;;1.80;;
41633;SDS011;37274;51.150;4.808;2022-07-23T07:35:24;3.45;;;1.70;;
41633;SDS011;37274;51.150;4.808;2022-07-23T07:37:51;2.10;;;1.40;;
41633;SDS011;37274;51.150;4.808;2022-07-23T07:40:18;5.53;;;1.48;;
41633;SDS011;37274;51.150;4.808;2022-07-23T07:42:49;2.47;;;1.42;;
41633;SDS011;37274;51.150;4.808;2022-07-23T07:45:19;4.82;;;2.05;;
41633;SDS011;37274;51.150;4.808;2022-07-23T07:47:46;3.70;;;2.47;;
41633;SDS011;37274;51.150;4.808;2022-07-23T07:50:13;3.55;;;1.90;;
41633;SDS011;37274;51.150;4.808;2022-07-23T07:52:40;3.10;;;1.90;;
41633;SDS011;37274;51.150;4.808;2022-07-23T07:55:08;5.25;;;1.50;;
41633;SDS011;37274;51.150;4.808;2022-07-23T07:57:35;2.40;;;1.30;;
41633;SDS011;37274;51.150;4.808;2022-07-23T08:00:03;2.97;;;1.23;;
41633;SDS011;37274;51.150;4.808;2022-07-23T08:02:39;3.25;;;1.30;;
41633;SDS011;37274;51.150;4.808;2022-07-23T08:05:11;6.82;;;1.38;;
41633;SDS011;37274;51.150;4.808;2022-07-23T08:07:38;3.40;;;1.85;;
41633;SDS011;37274;51.150;4.808;2022-07-23T08:10:07;6.75;;;2.55;;
41633;SDS011;37274;51.150;4.808;2022-07-23T08:15:03;4.53;;;2.42;;
41633;SDS011;37274;51.150;4.808;2022-07-23T08:17:33;5.07;;;2.90;;
41633;SDS011;37274;51.150;4.808;2022-07-23T08:20:00;5.03;;;2.58;;
41633;SDS011;37274;51.150;4.808;2022-07-23T08:22:40;3.25;;;1.90;;
41633;SDS011;37274;51.150;4.808;2022-07-23T08:25:08;5.72;;;2.75;;
41633;SDS011;37274;51.150;4.808;2022-07-23T08:27:35;3.03;;;2.08;;
41633;SDS011;37274;51.150;4.808;2022-07-23T08:30:03;3.88;;;1.95;;
41633;SDS011;37274;51.150;4.808;2022-07-23T08:32:30;4.00;;;1.45;;
41633;SDS011;37274;51.150;4.808;2022-07-23T08:35:10;4.25;;;1.70;;
41633;SDS011;37274;51.150;4.808;2022-07-23T08:37:37;5.25;;;1.45;;
41633;SDS011;37274;51.150;4.808;2022-07-23T08:40:04;2.78;;;1.23;;
41633;SDS011;37274;51.150;4.808;2022-07-23T08:42:31;4.57;;;1.40;;
41633;SDS011;37274;51.150;4.808;2022-07-23T08:45:02;3.28;;;1.30;;
41633;SDS011;37274;51.150;4.808;2022-07-23T08:47:29;2.97;;;1.77;;
41633;SDS011;37274;51.150;4.808;2022-07-23T08:49:56;2.42;;;1.20;;
41633;SDS011;37274;51.150;4.808;2022-07-23T08:52:25;4.35;;;1.58;;
41633;SDS011;37274;51.150;4.808;2022-07-23T08:54:53;2.88;;;1.65;;
41633;SDS011;37274;51.150;4.808;2022-07-23T08:57:21;2.97;;;1.50;;
41633;SDS011;37274;51.150;4.808;2022-07-23T08:59:47;1.48;;;1.10;;
41633;SDS011;37274;51.150;4.808;2022-07-23T09:02:14;3.22;;;1.40;;
41633;SDS011;37274;51.150;4.808;2022-07-23T09:04:41;2.35;;;1.27;;
41633;SDS011;37274;51.150;4.808;2022-07-23T09:07:08;3.22;;;1.40;;
41633;SDS011;37274;51.150;4.808;2022-07-23T09:09:34;6.00;;;1.77;;
41633;SDS011;37274;51.150;4.808;2022-07-23T09:12:05;3.70;;;1.50;;
41633;SDS011;37274;51.150;4.808;2022-07-23T09:14:37;2.80;;;1.27;;
41633;SDS011;37274;51.150;4.808;2022-07-23T09:17:12;3.50;;;1.70;;
41633;SDS011;37274;51.150;4.808;2022-07-23T09:19:41;3.22;;;1.48;;
41633;SDS011;37274;51.150;4.808;2022-07-23T09:22:18;5.07;;;1.40;;
41633;SDS011;37274;51.150;4.808;2022-07-23T09:25:13;4.32;;;1.30;;
41633;SDS011;37274;51.150;4.808;2022-07-23T09:30:22;4.75;;;1.30;;
41633;SDS011;37274;51.150;4.808;2022-07-23T09:35:48;1.50;;;1.00;;
41633;SDS011;37274;51.150;4.808;2022-07-23T09:38:15;2.92;;;1.00;;
41633;SDS011;37274;51.150;4.808;2022-07-23T09:40:43;2.20;;;1.20;;
41633;SDS011;37274;51.150;4.808;2022-07-23T09:43:11;2.45;;;1.30;;
41633;SDS011;37274;51.150;4.808;2022-07-23T09:45:39;3.70;;;1.60;;
41633;SDS011;37274;51.150;4.808;2022-07-23T09:48:12;5.15;;;1.42;;
41633;SDS011;37274;51.150;4.808;2022-07-23T09:50:44;2.40;;;1.20;;
41633;SDS011;37274;51.150;4.808;2022-07-23T09:53:23;4.18;;;1.73;;
41633;SDS011;37274;51.150;4.808;2022-07-23T09:55:51;1.95;;;1.42;;
41633;SDS011;37274;51.150;4.808;2022-07-23T09:58:19;1.75;;;1.08;;
41633;SDS011;37274;51.150;4.808;2022-07-23T10:00:48;2.03;;;1.30;;
41633;SDS011;37274;51.150;4.808;2022-07-23T10:03:15;2.50;;;1.13;;
41633;SDS011;37274;51.150;4.808;2022-07-23T10:05:44;2.45;;;1.15;;
41633;SDS011;37274;51.150;4.808;2022-07-23T10:08:11;1.55;;;1.08;;
41633;SDS011;37274;51.150;4.808;2022-07-23T10:10:39;1.13;;;0.80;;
41633;SDS011;37274;51.150;4.808;2022-07-23T10:13:06;4.68;;;1.38;;
41633;SDS011;37274;51.150;4.808;2022-07-23T10:15:52;3.53;;;0.90;;
41633;SDS011;37274;51.150;4.808;2022-07-23T10:18:18;1.75;;;1.17;;
41633;SDS011;37274;51.150;4.808;2022-07-23T10:20:45;1.77;;;1.00;;
41633;SDS011;37274;51.150;4.808;2022-07-23T10:23:15;2.72;;;1.00;;
41633;SDS011;37274;51.150;4.808;2022-07-23T10:25:51;2.00;;;1.00;;
41633;SDS011;37274;51.150;4.808;2022-07-23T10:28:48;1.42;;;0.80;;
41633;SDS011;37274;51.150;4.808;2022-07-23T10:37:40;3.22;;;1.48;;
41633;SDS011;37274;51.150;4.808;2022-07-23T10:40:18;1.75;;;1.20;;
41633;SDS011;37274;51.150;4.808;2022-07-23T10:42:46;3.38;;;1.63;;
41633;SDS011;37274;51.150;4.808;2022-07-23T10:45:33;6.03;;;1.65;;
41633;SDS011;37274;51.150;4.808;2022-07-23T10:48:11;1.50;;;1.02;;
41633;SDS011;37274;51.150;4.808;2022-07-23T10:51:08;4.20;;;1.40;;
41633;SDS011;37274;51.150;4.808;2022-07-23T10:59:25;2.00;;;0.75;;
41633;SDS011;37274;51.150;4.808;2022-07-23T11:01:52;0.60;;;0.50;;
41633;SDS011;37274;51.150;4.808;2022-07-23T11:04:18;1.50;;;0.90;;
41633;SDS011;37274;51.150;4.808;2022-07-23T11:17:32;2.10;;;0.75;;
41633;SDS011;37274;51.150;4.808;2022-07-23T11:25:11;4.38;;;1.10;;
41633;SDS011;37274;51.150;4.808;2022-07-23T11:27:39;4.32;;;1.20;;
41633;SDS011;37274;51.150;4.808;2022-07-23T11:32:55;3.20;;;0.65;;
41633;SDS011;37274;51.150;4.808;2022-07-23T11:35:45;2.60;;;1.10;;
41633;SDS011;37274;51.150;4.808;2022-07-23T11:38:17;3.55;;;0.70;;
41633;SDS011;37274;51.150;4.808;2022-07-23T11:40:49;1.95;;;0.85;;
41633;SDS011;37274;51.150;4.808;2022-07-23T11:43:17;3.17;;;0.88;;
41633;SDS011;37274;51.150;4.808;2022-07-23T11:45:46;2.60;;;0.70;;
41633;SDS011;37274;51.150;4.808;2022-07-23T11:48:18;3.75;;;1.10;;
41633;SDS011;37274;51.150;4.808;2022-07-23T11:50:50;5.30;;;0.95;;
41633;SDS011;37274;51.150;4.808;2022-07-23T11:53:35;2.92;;;1.02;;
41633;SDS011;37274;51.150;4.808;2022-07-23T11:56:11;6.30;;;1.50;;
41633;SDS011;37274;51.150;4.808;2022-07-23T11:58:38;1.35;;;0.75;;
41633;SDS011;37274;51.150;4.808;2022-07-23T12:01:06;3.53;;;0.85;;
41633;SDS011;37274;51.150;4.808;2022-07-23T12:03:49;4.78;;;1.17;;
41633;SDS011;37274;51.150;4.808;2022-07-23T12:06:19;2.25;;;1.10;;
41633;SDS011;37274;51.150;4.808;2022-07-23T12:08:46;2.50;;;1.02;;
41633;SDS011;37274;51.150;4.808;2022-07-23T12:11:13;3.38;;;1.42;;
41633;SDS011;37274;51.150;4.808;2022-07-23T12:13:40;3.35;;;1.48;;
41633;SDS011;37274;51.150;4.808;2022-07-23T12:16:07;1.75;;;1.05;;
41633;SDS011;37274;51.150;4.808;2022-07-23T12:18:34;2.40;;;1.80;;
41633;SDS011;37274;51.150;4.808;2022-07-23T12:21:03;3.95;;;2.03;;
41633;SDS011;37274;51.150;4.808;2022-07-23T12:23:31;4.63;;;1.80;;
41633;SDS011;37274;51.150;4.808;2022-07-23T12:26:00;7.18;;;2.00;;
41633;SDS011;37274;51.150;4.808;2022-07-23T12:28:29;6.07;;;1.70;;
41633;SDS011;37274;51.150;4.808;2022-07-23T12:30:57;2.83;;;1.73;;
41633;SDS011;37274;51.150;4.808;2022-07-23T12:33:26;4.70;;;2.10;;
41633;SDS011;37274;51.150;4.808;2022-07-23T12:35:55;3.72;;;1.52;;
41633;SDS011;37274;51.150;4.808;2022-07-23T12:38:24;3.17;;;1.60;;
41633;SDS011;37274;51.150;4.808;2022-07-23T12:40:53;3.65;;;1.92;;
41633;SDS011;37274;51.150;4.808;2022-07-23T12:46:05;4.10;;;2.28;;
41633;SDS011;37274;51.150;4.808;2022-07-23T12:48:34;2.13;;;1.70;;
41633;SDS011;37274;51.150;4.808;2022-07-23T12:51:20;3.55;;;2.15;;
41633;SDS011;37274;51.150;4.808;2022-07-23T12:53:55;2.70;;;1.50;;
41633;SDS011;37274;51.150;4.808;2022-07-23T12:56:28;3.90;;;1.58;;
41633;SDS011;37274;51.150;4.808;2022-07-23T13:01:35;1.73;;;1.42;;
41633;SDS011;37274;51.150;4.808;2022-07-23T13:04:13;1.85;;;1.48;;
41633;SDS011;37274;51.150;4.808;2022-07-23T13:06:56;1.40;;;1.23;;
41633;SDS011;37274;51.150;4.808;2022-07-23T13:09:26;1.60;;;1.50;;
41633;SDS011;37274;51.150;4.808;2022-07-23T13:11:58;1.75;;;1.60;;
41633;SDS011;37274;51.150;4.808;2022-07-23T13:14:26;2.85;;;1.80;;
41633;SDS011;37274;51.150;4.808;2022-07-23T13:16:54;2.17;;;1.27;;
41633;SDS011;37274;51.150;4.808;2022-07-23T13:19:22;1.88;;;1.15;;
41633;SDS011;37274;51.150;4.808;2022-07-23T13:21:51;1.85;;;1.10;;
41633;SDS011;37274;51.150;4.808;2022-07-23T13:24:18;3.60;;;1.40;;
41633;SDS011;37274;51.150;4.808;2022-07-23T13:26:45;2.08;;;1.70;;
41633;SDS011;37274;51.150;4.808;2022-07-23T13:29:13;2.00;;;1.80;;
41633;SDS011;37274;51.150;4.808;2022-07-23T13:31:42;2.45;;;1.95;;
41633;SDS011;37274;51.150;4.808;2022-07-23T13:34:11;1.27;;;1.17;;
41633;SDS011;37274;51.150;4.808;2022-07-23T13:36:38;2.20;;;1.50;;
41633;SDS011;37274;51.150;4.808;2022-07-23T13:39:05;1.48;;;1.35;;
41633;SDS011;37274;51.150;4.808;2022-07-23T13:41:35;2.10;;;1.60;;
41633;SDS011;37274;51.150;4.808;2022-07-23T13:44:03;1.77;;;1.35;;
41633;SDS011;37274;51.150;4.808;2022-07-23T13:46:30;2.17;;;1.38;;
41633;SDS011;37274;51.150;4.808;2022-07-23T13:48:57;1.30;;;1.13;;
41633;SDS011;37274;51.150;4.808;2022-07-23T13:51:25;1.30;;;1.20;;
41633;SDS011;37274;51.150;4.808;2022-07-23T13:53:54;2.13;;;1.23;;
41633;SDS011;37274;51.150;4.808;2022-07-23T13:56:21;2.38;;;1.50;;
41633;SDS011;37274;51.150;4.808;2022-07-23T13:58:48;6.38;;;1.58;;
41633;SDS011;37274;51.150;4.808;2022-07-23T14:01:14;6.97;;;3.08;;
41633;SDS011;37274;51.150;4.808;2022-07-23T14:03:43;5.70;;;1.98;;
41633;SDS011;37274;51.150;4.808;2022-07-23T14:06:10;25.40;;;5.97;;
41633;SDS011;37274;51.150;4.808;2022-07-23T14:08:42;6.18;;;2.10;;
41633;SDS011;37274;51.150;4.808;2022-07-23T14:11:10;3.55;;;1.80;;
41633;SDS011;37274;51.150;4.808;2022-07-23T14:13:38;2.50;;;1.50;;
41633;SDS011;37274;51.150;4.808;2022-07-23T14:16:06;9.00;;;2.20;;
41633;SDS011;37274;51.150;4.808;2022-07-23T14:18:33;9.30;;;2.42;;
41633;SDS011;37274;51.150;4.808;2022-07-23T14:21:01;4.25;;;2.00;;
41633;SDS011;37274;51.150;4.808;2022-07-23T14:23:28;4.65;;;1.92;;
41633;SDS011;37274;51.150;4.808;2022-07-23T14:25:56;4.70;;;1.80;;
41633;SDS011;37274;51.150;4.808;2022-07-23T14:28:23;2.40;;;1.90;;
41633;SDS011;37274;51.150;4.808;2022-07-23T14:30:50;5.90;;;1.80;;
41633;SDS011;37274;51.150;4.808;2022-07-23T14:33:16;2.15;;;1.80;;
41633;SDS011;37274;51.150;4.808;2022-07-23T14:35:44;2.85;;;2.38;;
41633;SDS011;37274;51.150;4.808;2022-07-23T14:38:11;4.35;;;2.17;;
41633;SDS011;37274;51.150;4.808;2022-07-23T14:40:39;3.03;;;2.38;;
41633;SDS011;37274;51.150;4.808;2022-07-23T14:43:07;2.17;;;1.98;;
41633;SDS011;37274;51.150;4.808;2022-07-23T14:45:37;3.58;;;2.28;;
41633;SDS011;37274;51.150;4.808;2022-07-23T14:48:04;6.75;;;2.03;;
41633;SDS011;37274;51.150;4.808;2022-07-23T14:50:31;3.60;;;1.58;;
41633;SDS011;37274;51.150;4.808;2022-07-23T14:52:58;2.20;;;2.00;;
41633;SDS011;37274;51.150;4.808;2022-07-23T14:55:25;2.10;;;1.52;;
41633;SDS011;37274;51.150;4.808;2022-07-23T14:57:52;2.47;;;2.00;;
41633;SDS011;37274;51.150;4.808;2022-07-23T15:00:18;2.60;;;1.90;;
41633;SDS011;37274;51.150;4.808;2022-07-23T15:02:49;3.42;;;1.65;;
41633;SDS011;37274;51.150;4.808;2022-07-23T15:05:20;1.95;;;1.40;;
41633;SDS011;37274;51.150;4.808;2022-07-23T15:07:47;2.47;;;1.65;;
41633;SDS011;37274;51.150;4.808;2022-07-23T15:10:15;3.53;;;2.17;;
41633;SDS011;37274;51.150;4.808;2022-07-23T15:12:47;2.42;;;1.50;;
41633;SDS011;37274;51.150;4.808;2022-07-23T15:15:14;1.63;;;1.40;;
41633;SDS011;37274;51.150;4.808;2022-07-23T15:17:41;2.95;;;1.83;;
41633;SDS011;37274;51.150;4.808;2022-07-23T15:20:08;2.20;;;1.80;;
41633;SDS011;37274;51.150;4.808;2022-07-23T15:22:36;2.75;;;1.50;;
41633;SDS011;37274;51.150;4.808;2022-07-23T15:25:03;2.67;;;1.70;;
41633;SDS011;37274;51.150;4.808;2022-07-23T15:27:30;2.53;;;1.70;;
41633;SDS011;37274;51.150;4.808;2022-07-23T15:29:58;3.00;;;2.10;;
41633;SDS011;37274;51.150;4.808;2022-07-23T15:32:25;3.10;;;2.25;;
41633;SDS011;37274;51.150;4.808;2022-07-23T15:34:53;4.97;;;2.22;;
41633;SDS011;37274;51.150;4.808;2022-07-23T15:37:21;2.30;;;2.10;;
41633;SDS011;37274;51.150;4.808;2022-07-23T15:39:50;2.88;;;2.60;;